Airfield :







YOU CAN JOIN US ON...

 
LOGIN :

Register | Disclaimer

   EN    FR    IT 

 









Legend :    VFR   Marginal VFR   IFR   Intensive IFR   Very Intensive IFR
Visi :
Ceiling :
>= 8 km
>= 3000ft
5 to 8 km
1000 to 3000 ft
1500m to 5 km
500 to 1000 ft
800 to 1500m
200 to 500 ft
< 800m
< 200 ft
Symbols :   Thunderstorms  Fog  Heavy snow  Heavy precipitations  Wind > 20 kt






- Airport Elevation : 90 ft
- IATA code : YHU


CYHU - Montréal Saint-Hubert

CURRENT METAR :
  • 102305Z AUTO 29020G26KT 9SM FEW060 BKN077 M01/M10 A2989 RMK PRESRR SLP126

EXPIRED METARs :
  • 102200Z AUTO 28016G21KT 9SM BKN075 BKN250 M00/M09 A2983 RMK SLP103
  • 102100Z AUTO 27015G24KT 9SM SCT031 SCT036 OVC075 02/M05 A2978 RMK PRESRR SLP087

TAF TAF CYHU
Valid from the 10 at 18:00 until the 11 at 18:00 UTC


101738Z 1018/1118 26020G32KT P6SM SCT030 BKN050
FM102000 26015G25KT P6SM BKN030
TEMPO 1020/1023 5SM -SHSN
FM102300 29012G22KT P6SM SCT030
BECMG 1101/1103 30010KT
BECMG 1109/1111 VRB03KT
FM111700 17008KT P6SM BKN030 RMK FCST BASED ON AUTO OBS. NXT FCST BY 110000Z



MET'MAP, your aeronautical weather chart ! - Copyright ORBIFLY December 2007 - Disclaimer

ORBIFLY MET'MAP TEAM :

Programming & Development : Alexandra Zaïnal
Concept & original design : Baudouin d'Aumeries
Assistance for programming : Marc-Olivier Méhu
Technical & hardware support : Manuel Goepfert

Contact : metmap@orbifly.com




SOURCES & CREDITS :

   NOAA